Spring Park, MN (55384)

5:35 PM CDT on May 06, 2015 (GMT -0500)
Spring Park Bay | | Change Station
CLOSE
Current Station
Personal Weather Station
Location: Mound, MN
Elevation: 956 ft
Nearby Weather Stations
Active Advisory: Special Statement

Elev 956 ft 44.93 °N, 93.63 °W | Updated 21 seconds ago

Mostly Cloudy
Mostly Cloudy
69.6 °F
Feels Like 69.6 °F
N
18.0
Wind Variable Wind from SSE
Gusts 24.0 mph

Today
High -- | Low -- °F
--% Chance of Precip.
Yesterday
High -- | Low -- °F
Precip. -- in
5:57 AM 8:25 PM
Waning Gibbous, 92% visible
Pressure 29.85 in
Visibility 9.0 miles
Clouds Overcast 5000 ft
Dew Point 60 °F
Humidity 73%
Rainfall 0.05 in
Snow Depth Not available.
UV 1 out of 12
Pollen 5.70 out of 12
Air Quality Not available.
Flu Activity Sporadic
METAR KFCM 062153Z 14019G26KT 9SM -RA OVC050 23/14 A2985 RMK AO2 PK WND 14031/2140 RAB52 SLP106 P0000 T02330139

More Conditions Fewer Conditions

Pressure 29.85 in
Visibility 9.0 miles
Clouds Overcast 5000 ft
Dew Point 60 °F
Humidity 73%
Rainfall 0.05 in
Snow Depth Not available.
UV 1 out of 12
Pollen 5.70 out of 12
Air Quality Not available.
Flu Activity Sporadic
METAR KFCM 062153Z 14019G26KT 9SM -RA OVC050 23/14 A2985 RMK AO2 PK WND 14031/2140 RAB52 SLP106 P0000 T02330139

More Conditions Fewer Conditions

10-Day Weather Forecast

Almanac

Astronomy

May. 06, 2015 Rise Set
Actual Time
Civil Twilight
Nautical Twilight
Astronomical Twilight
Moon
Length of Visible Light
Length of Day
Tomorrow will be .
, % of the Moon is Illuminated

Today's Extremes

State Highs State Lows

Community

WunderPhotos

Upload Photos

1,819,031 photos uploaded!

WunderBlogs® & News

Nearby

Air Quality

  Air Quality AQ Index Pollutant
Not available.

Snow Depth

Station Depth Elevation

Earthquake Activity

City Distance Mag. Time & Date
Minimum magnitude displayed is 2.5.

Coastal Water Temperatures

Place Temperature

Stations

Nearby Weather Stations

Station Location Temp. Windchill Dew Point Humidity Wind Precip. Elev Updated Type
                   
Special Statement
Statement as of 5:29 PM CDT on May 06, 2015

... A strong thunderstorm will affect northwestern Hennepin County...

At 528 PM CDT... a strong thunderstorm was over Minnetrista... or 18
miles south of Buffalo... moving north at 35 mph.

Winds in excess of 30 mph and pea size hail are possible with this
storm.

Locations impacted include...
Mound... Orono... Minnetrista... Delano... Corcoran... Medina...
Rockford... Independence... St. Bonifacius... Maple Plain... Hanover and
Greenfield.

To report severe weather... contact your nearest law enforcement
agency. They can relay your report to the National Weather Service
office in the Twin Cities.

Lat... Lon 4514 9354 4489 9367 4489 9376 4506 9377
      4513 9371 4516 9367
time... Mot... loc 2228z 189deg 32kt 4494 9372